Terminal Aerodrome Forecast
Issued by NWS Central Illinois

Home | Current Version | Previous Version | Text Only | Print | Product List | Glossary On
Versions: 1 2 3 4 5 6 7 8 9 10 11 12 13 14 15 16 17 18 19 20 21 22
194
FTUS43 KILX 260525
TAFPIA
TAF
KPIA 260525Z 2606/2706 20007KT P6SM BKN100
     FM261500 20013G25KT P6SM BKN120
     FM262000 23015G26KT P6SM SCT150
     FM262300 22010KT P6SM SCT150=

USA.gov is the U.S. government's official web portal to all federal, state and local government web resources and services.